Pagina principale
METAR-TAF:

METAR-TAF

Aeroporti :

Siirt, Turchia

latitudine: 37-58-41N, longitudine: 41-50-21E, altezza: 610 m

METAR: mancante

Ora: 16:20 (13:20 UTC)

Previsione

Il bollettino è stato emesso 2 ore e 40 minuti fa, alle 10:40 UTC
Previsione valida dal 26 alle 12 UTC al 26 alle 21 UTC
Vento 2 kt da direzioni variabili
Visibilità 10 km o più
nessuna nube inferiore a 1500 m e nessun cumulonembo

TAF: LTCL 261040Z 2612/2621 VRB02KT CAVOK

Osservazioni e previsioni meteorologiche di più di 4000 aeroporti (messaggi METAR e TAF).

Le stazioni disponibili sono rappresentate dai dischi gialli e rossi sulla carta.

Puntare il mouse per vedere il nome della stazione.

Clicca sopra per visualizzare le osservazioni e previsioni meteorologiche.

Per cambiare la mappa : fare clic sui pulsanti verdi con una croce nera per ingrandire, il pulsante verde con un trattino per diminuire, o sulla freccia verde per le mappe adiacenti.


METAR-TAF: